Time;durP1;ratioP1;P1;durP2;ratioP2;P2;SDS_P1;SDS_P2;PMS_P1;PMS_P2;Temp;Humidity;BMP_temperature;BMP_pressure;BME280_temperature;BME280_humidity;BME280_pressure;Samples;Min_cycle;Max_cycle;Signal;HPM_P1;HPM_P2
2023/12/25 00:00:04;;;;;;;11.97;11.67;;;24.60;53.20;;;;;;4984381;28;20500;-68
2023/12/25 00:02:32;;;;;;;11.47;11.27;;;24.50;53.20;;;;;;4985472;28;20458;-68
2023/12/25 00:04:59;;;;;;;11.90;11.60;;;24.50;53.30;;;;;;4987928;28;20443;-68
2023/12/25 00:07:26;;;;;;;11.80;11.50;;;24.40;53.30;;;;;;4986461;28;20477;-68
2023/12/25 00:09:52;;;;;;;11.77;11.47;;;24.40;53.40;;;;;;4984115;28;20487;-68
2023/12/25 00:12:21;;;;;;;11.57;11.33;;;24.30;53.50;;;;;;4984147;28;20946;-68
2023/12/25 00:14:48;;;;;;;12.37;12.07;;;24.30;53.60;;;;;;4984275;28;20455;-68
2023/12/25 00:17:16;;;;;;;12.93;12.40;;;24.20;53.60;;;;;;4984198;28;20978;-68
2023/12/25 00:19:42;;;;;;;12.60;12.30;;;24.20;53.60;;;;;;4986424;28;20443;-68
2023/12/25 00:22:09;;;;;;;12.27;11.97;;;24.20;53.70;;;;;;4987454;28;20475;-68
2023/12/25 00:24:36;;;;;;;12.27;11.97;;;24.20;53.70;;;;;;4980080;28;20502;-68
2023/12/25 00:27:03;;;;;;;12.67;12.27;;;24.10;53.70;;;;;;4984054;28;20848;-68
2023/12/25 00:29:32;;;;;;;13.33;13.03;;;24.10;53.80;;;;;;4984802;28;20922;-68
2023/12/25 00:31:59;;;;;;;12.43;12.13;;;24.10;53.80;;;;;;4986619;28;20439;-69
2023/12/25 00:34:26;;;;;;;13.17;12.87;;;24.10;53.80;;;;;;4986899;28;20470;-69
2023/12/25 00:36:53;;;;;;;12.73;12.43;;;24.00;53.80;;;;;;4983718;28;20504;-68
2023/12/25 00:39:19;;;;;;;12.67;12.37;;;24.00;53.80;;;;;;4981765;28;20947;-68
2023/12/25 00:41:46;;;;;;;12.60;12.30;;;24.00;53.90;;;;;;4986295;28;20898;-68
2023/12/25 00:44:13;;;;;;;12.50;12.20;;;24.00;54.00;;;;;;4986882;28;20537;-68
2023/12/25 00:46:42;;;;;;;12.03;11.73;;;23.90;54.00;;;;;;4984600;28;20475;-68
2023/12/25 00:49:10;;;;;;;12.73;12.43;;;23.90;54.10;;;;;;4983540;28;20452;-68
2023/12/25 00:51:36;;;;;;;12.70;12.40;;;23.90;54.10;;;;;;4989040;28;20494;-68
2023/12/25 00:54:04;;;;;;;12.90;12.50;;;23.90;54.10;;;;;;4983631;28;20936;-68
2023/12/25 00:56:31;;;;;;;13.10;12.80;;;23.90;54.10;;;;;;4984183;28;20448;-68
2023/12/25 00:58:59;;;;;;;13.40;13.00;;;23.80;54.10;;;;;;4986723;28;20482;-68
2023/12/25 01:01:25;;;;;;;11.60;11.30;;;23.80;54.20;;;;;;4986294;28;20469;-68
2023/12/25 01:03:54;;;;;;;12.57;12.27;;;23.80;54.20;;;;;;4983479;28;20508;-68
2023/12/25 01:06:21;;;;;;;12.70;12.40;;;23.80;54.20;;;;;;5013953;23;21018;-66
2023/12/25 01:08:48;;;;;;;12.10;11.80;;;23.70;54.10;;;;;;4994192;28;20431;-66
2023/12/25 01:11:15;;;;;;;12.00;11.70;;;23.70;54.10;;;;;;4994542;28;20478;-66
2023/12/25 01:13:42;;;;;;;16.10;15.70;;;23.70;54.20;;;;;;4994667;28;20489;-66
2023/12/25 01:16:09;;;;;;;17.23;16.73;;;23.70;54.20;;;;;;4994376;28;20501;-66
2023/12/25 01:18:36;;;;;;;15.50;15.10;;;23.70;54.20;;;;;;4994292;28;20494;-66
2023/12/25 01:21:05;;;;;;;16.70;16.30;;;23.70;54.30;;;;;;4992960;28;20470;-66
2023/12/25 01:23:31;;;;;;;12.30;12.00;;;23.60;54.30;;;;;;4994275;28;20522;-66
2023/12/25 01:25:58;;;;;;;12.70;12.40;;;23.60;54.30;;;;;;4994166;28;20506;-66
2023/12/25 01:28:25;;;;;;;13.10;12.80;;;23.60;54.50;;;;;;4994178;28;20601;-66
2023/12/25 01:30:52;;;;;;;13.00;12.70;;;23.60;54.60;;;;;;4993040;28;20479;-66
2023/12/25 01:33:19;;;;;;;14.97;14.57;;;23.60;54.60;;;;;;4994213;28;20478;-66
2023/12/25 01:35:46;;;;;;;17.23;16.77;;;23.50;54.60;;;;;;4993950;28;20494;-66
2023/12/25 01:38:14;;;;;;;18.40;17.80;;;23.50;54.60;;;;;;4993472;28;20490;-66
2023/12/25 01:40:44;;;;;;;16.07;15.67;;;23.50;54.60;;;;;;4993926;28;20474;-66
2023/12/25 01:43:11;;;;;;;16.07;15.67;;;23.50;54.60;;;;;;4993955;28;20479;-66
2023/12/25 01:45:38;;;;;;;15.60;15.20;;;23.50;54.60;;;;;;4993731;28;20497;-66
2023/12/25 01:48:07;;;;;;;16.33;15.93;;;23.50;54.60;;;;;;4993923;28;20471;-66
2023/12/25 01:50:34;;;;;;;15.70;15.30;;;23.50;54.60;;;;;;4993807;28;20489;-66
2023/12/25 01:53:01;;;;;;;15.80;15.40;;;23.40;54.60;;;;;;4993202;28;20483;-66
2023/12/25 01:55:30;;;;;;;17.00;16.40;;;23.40;54.60;;;;;;4993464;28;20903;-66
2023/12/25 01:57:57;;;;;;;12.63;12.33;;;23.40;54.70;;;;;;4993701;28;20479;-66
2023/12/25 02:00:24;;;;;;;12.50;12.20;;;23.40;54.70;;;;;;4993831;28;20478;-66
2023/12/25 02:02:51;;;;;;;12.73;12.43;;;23.40;54.80;;;;;;4993368;28;20473;-66
2023/12/25 02:05:18;;;;;;;12.83;12.50;;;23.40;54.90;;;;;;4993268;28;20510;-66
2023/12/25 02:07:46;;;;;;;12.70;12.40;;;23.40;54.90;;;;;;4992847;28;20483;-66
2023/12/25 02:10:26;;;;;;;12.87;12.57;;;23.30;54.90;;;;;;4993576;28;20969;-66
2023/12/25 02:12:55;;;;;;;12.50;12.20;;;23.30;54.90;;;;;;4985525;28;20907;-66
2023/12/25 02:15:23;;;;;;;12.77;12.47;;;23.30;54.90;;;;;;4993243;28;20474;-66
2023/12/25 02:17:51;;;;;;;12.83;12.53;;;23.30;54.90;;;;;;4993284;28;20930;-66
2023/12/25 02:20:20;;;;;;;12.20;11.83;;;23.30;55.00;;;;;;4992681;28;20892;-66
2023/12/25 02:22:46;;;;;;;13.63;13.33;;;23.30;55.00;;;;;;4991653;28;20478;-66
2023/12/25 02:25:23;;;;;;;12.70;12.40;;;23.30;55.10;;;;;;4992832;28;20507;-66
2023/12/25 02:27:51;;;;;;;12.80;12.50;;;23.30;55.00;;;;;;4993147;28;20446;-66
2023/12/25 02:30:18;;;;;;;12.50;12.20;;;23.20;55.00;;;;;;4993147;28;20475;-66
2023/12/25 02:32:45;;;;;;;13.10;12.80;;;23.20;54.90;;;;;;4992908;28;20590;-66
2023/12/25 02:35:12;;;;;;;12.90;12.60;;;23.20;54.90;;;;;;4992887;28;20471;-66
2023/12/25 02:37:39;;;;;;;12.60;12.30;;;23.20;55.00;;;;;;4992377;28;20784;-66
2023/12/25 02:40:07;;;;;;;13.30;13.00;;;23.20;55.10;;;;;;4992371;28;20474;-66
2023/12/25 02:42:34;;;;;;;12.60;12.30;;;23.20;55.20;;;;;;4992679;28;20475;-66
2023/12/25 02:45:02;;;;;;;12.90;12.60;;;23.20;55.20;;;;;;4992734;28;20506;-66
2023/12/25 02:47:29;;;;;;;12.20;11.90;;;23.20;55.20;;;;;;4992623;28;20506;-66
2023/12/25 02:49:56;;;;;;;12.23;11.90;;;23.10;55.20;;;;;;4992759;28;20471;-66
2023/12/25 02:52:23;;;;;;;12.80;12.50;;;23.10;55.30;;;;;;4992651;28;20482;-66
2023/12/25 02:54:50;;;;;;;12.80;12.50;;;23.10;55.30;;;;;;4992165;28;20478;-66
2023/12/25 02:57:16;;;;;;;12.90;12.60;;;23.10;55.30;;;;;;4992738;28;20497;-66
2023/12/25 02:59:43;;;;;;;12.63;12.33;;;23.10;55.30;;;;;;4992542;28;20533;-66
2023/12/25 03:02:11;;;;;;;13.73;13.43;;;23.10;55.30;;;;;;4992490;28;20474;-66
2023/12/25 03:04:38;;;;;;;12.83;12.53;;;23.10;55.40;;;;;;4992383;28;20507;-66
2023/12/25 03:07:05;;;;;;;12.60;12.30;;;23.00;55.30;;;;;;4992438;28;20498;-66
2023/12/25 03:09:32;;;;;;;12.90;12.60;;;23.10;55.30;;;;;;4985495;28;20479;-66
2023/12/25 03:11:59;;;;;;;12.83;12.53;;;23.00;55.30;;;;;;4992331;28;20512;-66
2023/12/25 03:14:26;;;;;;;12.97;12.67;;;23.00;55.40;;;;;;4992468;28;20870;-66
2023/12/25 03:16:53;;;;;;;13.00;12.70;;;23.00;55.50;;;;;;4992274;28;20906;-66
2023/12/25 03:19:21;;;;;;;12.60;12.30;;;23.00;55.50;;;;;;4992511;28;20474;-66
2023/12/25 03:21:48;;;;;;;12.43;12.13;;;23.00;55.60;;;;;;4992130;28;20479;-66
2023/12/25 03:24:14;;;;;;;12.30;12.00;;;23.00;55.70;;;;;;4992210;28;20561;-66
2023/12/25 03:26:42;;;;;;;13.37;13.07;;;23.00;55.70;;;;;;4988283;28;20495;-66
2023/12/25 03:29:09;;;;;;;13.00;12.70;;;23.00;55.70;;;;;;4992209;28;20443;-66
2023/12/25 03:31:36;;;;;;;12.70;12.40;;;23.00;55.70;;;;;;4991117;28;20474;-66
2023/12/25 03:34:03;;;;;;;13.50;13.20;;;23.00;55.90;;;;;;4991621;28;20479;-66
2023/12/25 03:36:31;;;;;;;13.07;12.77;;;23.00;55.90;;;;;;4992410;28;20505;-66
2023/12/25 03:38:58;;;;;;;13.33;13.03;;;22.90;55.90;;;;;;4984599;28;20474;-66
2023/12/25 03:41:25;;;;;;;13.00;12.70;;;22.90;55.90;;;;;;4992138;28;20883;-66
2023/12/25 03:43:52;;;;;;;12.17;11.87;;;22.90;55.80;;;;;;4986370;28;20565;-66
2023/12/25 03:46:19;;;;;;;12.60;12.30;;;22.90;55.70;;;;;;4992208;28;20893;-66
2023/12/25 03:48:46;;;;;;;12.47;12.17;;;22.90;55.80;;;;;;4991908;28;20482;-66
2023/12/25 03:51:13;;;;;;;12.80;12.50;;;22.90;55.70;;;;;;4991323;28;20443;-66
2023/12/25 03:53:41;;;;;;;12.97;12.57;;;22.90;55.80;;;;;;4991973;28;20474;-66
2023/12/25 03:56:08;;;;;;;12.50;12.20;;;22.90;55.80;;;;;;4992035;28;20491;-66
2023/12/25 03:58:35;;;;;;;12.80;12.50;;;22.90;55.90;;;;;;4991161;28;20450;-66
2023/12/25 04:01:02;;;;;;;12.17;11.87;;;22.90;56.00;;;;;;4991914;28;20477;-66
2023/12/25 04:03:29;;;;;;;12.70;12.17;;;22.90;56.10;;;;;;4991924;28;20447;-66
2023/12/25 04:05:56;;;;;;;13.30;13.00;;;22.90;56.10;;;;;;4991708;28;20521;-66
2023/12/25 04:08:23;;;;;;;13.40;13.10;;;22.80;56.00;;;;;;4991851;28;20475;-66
2023/12/25 04:10:51;;;;;;;12.90;12.60;;;22.80;56.10;;;;;;4991734;28;20475;-66
2023/12/25 04:13:18;;;;;;;12.70;12.40;;;22.80;56.10;;;;;;4991777;28;20481;-66
2023/12/25 04:15:45;;;;;;;13.40;13.10;;;22.80;56.10;;;;;;4987571;28;20975;-66
2023/12/25 04:18:12;;;;;;;13.20;12.90;;;22.80;56.10;;;;;;4991749;28;20505;-66
2023/12/25 04:20:39;;;;;;;13.30;13.00;;;22.80;56.20;;;;;;4991539;28;20530;-66
2023/12/25 04:23:06;;;;;;;13.23;12.93;;;22.80;56.10;;;;;;4991734;28;20447;-66
2023/12/25 04:25:33;;;;;;;12.77;12.47;;;22.80;56.00;;;;;;4991521;28;20593;-66
2023/12/25 04:28:01;;;;;;;12.70;12.40;;;22.80;56.10;;;;;;4991664;28;20497;-66
2023/12/25 04:30:28;;;;;;;13.23;12.90;;;22.80;56.10;;;;;;4991647;28;20487;-66
2023/12/25 04:32:55;;;;;;;12.50;12.10;;;22.80;56.10;;;;;;4990943;28;20470;-66
2023/12/25 04:35:21;;;;;;;12.53;12.23;;;22.80;56.20;;;;;;4991617;28;20478;-66
2023/12/25 04:37:48;;;;;;;12.30;12.00;;;22.80;56.30;;;;;;4991526;28;20478;-66
2023/12/25 04:40:15;;;;;;;13.13;12.83;;;22.80;56.30;;;;;;4991498;28;20474;-66
2023/12/25 04:42:42;;;;;;;12.93;12.63;;;22.80;56.40;;;;;;4992906;28;20481;-66
2023/12/25 04:45:11;;;;;;;12.90;12.50;;;22.70;56.80;;;;;;4994911;28;20507;-66
2023/12/25 04:47:38;;;;;;;12.70;12.40;;;22.80;56.50;;;;;;4994407;28;20478;-65
2023/12/25 04:50:06;;;;;;;13.30;13.00;;;22.70;56.50;;;;;;4987733;28;20454;-66
2023/12/25 04:52:32;;;;;;;12.60;12.30;;;22.80;56.50;;;;;;4995096;28;20478;-66
2023/12/25 04:54:59;;;;;;;12.37;12.07;;;22.70;56.50;;;;;;4986992;28;20470;-66
2023/12/25 04:57:26;;;;;;;12.90;12.60;;;22.70;56.30;;;;;;4994186;28;20494;-66
2023/12/25 04:59:53;;;;;;;13.83;13.53;;;22.70;56.40;;;;;;4994715;28;20474;-66
2023/12/25 05:02:21;;;;;;;13.30;13.00;;;22.70;56.30;;;;;;4994853;28;20481;-66
2023/12/25 05:04:48;;;;;;;13.63;13.33;;;22.70;56.30;;;;;;4990907;28;20562;-66
2023/12/25 05:07:15;;;;;;;14.30;14.00;;;22.70;56.40;;;;;;4994444;28;20498;-66
2023/12/25 05:09:42;;;;;;;14.00;13.63;;;22.70;56.40;;;;;;4994455;28;20474;-66
2023/12/25 05:12:09;;;;;;;14.37;14.07;;;22.70;56.40;;;;;;4994765;28;20471;-66
2023/12/25 05:14:36;;;;;;;16.30;15.90;;;22.70;56.50;;;;;;4994621;28;20467;-66
2023/12/25 05:17:02;;;;;;;18.43;17.93;;;22.70;56.50;;;;;;4994344;28;20482;-66
2023/12/25 05:19:31;;;;;;;14.40;14.10;;;22.70;56.50;;;;;;4992727;28;20482;-66
2023/12/25 05:21:58;;;;;;;15.30;14.90;;;22.70;56.50;;;;;;4994336;28;20586;-66
2023/12/25 05:24:25;;;;;;;15.10;14.80;;;22.70;56.60;;;;;;4994282;28;20929;-66
2023/12/25 05:26:52;;;;;;;14.00;13.70;;;22.70;56.60;;;;;;4994131;28;20890;-66
2023/12/25 05:29:18;;;;;;;14.50;14.20;;;22.70;56.50;;;;;;4994256;28;20546;-66
2023/12/25 05:31:45;;;;;;;14.40;14.10;;;22.70;56.50;;;;;;4994233;28;20883;-66
2023/12/25 05:34:12;;;;;;;15.03;14.63;;;22.70;56.50;;;;;;4994158;28;20842;-66
2023/12/25 05:36:40;;;;;;;14.87;14.57;;;22.70;56.60;;;;;;4986567;28;20494;-66
2023/12/25 05:39:08;;;;;;;15.80;15.40;;;22.70;56.60;;;;;;4994182;28;20474;-66
2023/12/25 05:41:35;;;;;;;14.20;13.90;;;22.70;56.70;;;;;;4993935;28;20930;-66
2023/12/25 05:44:03;;;;;;;15.00;14.70;;;22.70;56.60;;;;;;4993939;28;21047;-66
2023/12/25 05:46:30;;;;;;;14.30;14.00;;;22.70;56.60;;;;;;4993780;28;20486;-66
2023/12/25 05:48:56;;;;;;;15.10;14.80;;;22.70;56.50;;;;;;4993752;28;20465;-66
2023/12/25 05:51:23;;;;;;;14.57;14.27;;;22.70;56.50;;;;;;4993414;28;20471;-66
2023/12/25 05:53:51;;;;;;;14.10;13.80;;;22.70;56.60;;;;;;4992772;28;20474;-66
2023/12/25 05:56:19;;;;;;;17.00;16.60;;;22.70;57.20;;;;;;4993618;28;20503;-66
2023/12/25 05:58:46;;;;;;;17.97;17.53;;;22.70;56.60;;;;;;4992686;28;20446;-66
2023/12/25 06:01:13;;;;;;;14.73;14.43;;;22.70;56.50;;;;;;4993680;28;20470;-66
2023/12/25 06:03:40;;;;;;;15.20;14.80;;;22.70;56.50;;;;;;4992835;28;20518;-66
2023/12/25 06:06:08;;;;;;;15.83;15.43;;;22.70;56.60;;;;;;4993267;28;20518;-66
2023/12/25 06:08:35;;;;;;;15.33;14.93;;;22.70;56.60;;;;;;4993753;28;20510;-66
2023/12/25 06:11:03;;;;;;;15.13;14.80;;;22.70;56.50;;;;;;4993484;28;20483;-66
2023/12/25 06:13:30;;;;;;;15.00;14.50;;;22.70;56.60;;;;;;4993371;28;20481;-66
2023/12/25 06:15:57;;;;;;;14.33;14.03;;;22.70;56.50;;;;;;4993220;28;21021;-66
2023/12/25 06:18:24;;;;;;;14.60;14.30;;;22.80;56.60;;;;;;4992730;28;20474;-66
2023/12/25 06:20:51;;;;;;;15.27;14.90;;;22.70;57.10;;;;;;4993110;28;20483;-66
2023/12/25 06:23:18;;;;;;;15.00;14.70;;;22.70;56.60;;;;;;4993150;28;20443;-66
2023/12/25 06:25:46;;;;;;;15.77;15.37;;;22.70;56.60;;;;;;4992915;28;20519;-66
2023/12/25 06:28:14;;;;;;;16.37;15.97;;;22.70;56.80;;;;;;4993292;28;20530;-66
2023/12/25 06:30:41;;;;;;;16.80;16.40;;;22.70;56.70;;;;;;4992906;28;20470;-66
2023/12/25 06:33:08;;;;;;;16.40;16.00;;;22.70;56.80;;;;;;4992289;28;20479;-66
2023/12/25 06:35:35;;;;;;;15.90;15.50;;;22.70;56.80;;;;;;4992959;28;20490;-66
2023/12/25 06:38:02;;;;;;;17.27;16.87;;;22.70;56.60;;;;;;4992912;28;20459;-66
2023/12/25 06:40:28;;;;;;;16.50;16.10;;;22.70;56.50;;;;;;4992925;28;20863;-66
2023/12/25 06:42:55;;;;;;;16.80;16.40;;;22.70;56.50;;;;;;4992982;28;20859;-66
2023/12/25 06:45:24;;;;;;;16.40;16.00;;;22.80;56.60;;;;;;4992176;28;20907;-66
2023/12/25 06:47:52;;;;;;;16.20;15.80;;;22.70;56.50;;;;;;4989093;28;20482;-66
2023/12/25 06:50:19;;;;;;;16.50;16.10;;;22.70;56.60;;;;;;4992795;28;20474;-66
2023/12/25 06:52:48;;;;;;;18.20;17.70;;;22.70;56.50;;;;;;4992626;28;20455;-66
2023/12/25 06:55:15;;;;;;;16.07;15.50;;;22.70;56.60;;;;;;4992747;28;20947;-66
2023/12/25 06:57:43;;;;;;;13.70;13.40;;;22.70;56.60;;;;;;4992583;28;20526;-66
2023/12/25 07:00:12;;;;;;;15.87;15.47;;;22.70;56.60;;;;;;4992030;28;20543;-66
2023/12/25 07:02:40;;;;;;;17.07;16.67;;;22.70;56.70;;;;;;4992364;28;20487;-66
2023/12/25 07:05:08;;;;;;;16.63;16.23;;;22.70;56.70;;;;;;4991557;28;20514;-66
2023/12/25 07:07:35;;;;;;;17.37;16.97;;;22.70;56.70;;;;;;5017419;23;21049;-70
2023/12/25 07:10:02;;;;;;;16.50;16.10;;;22.70;56.60;;;;;;4992618;28;20459;-71
2023/12/25 07:12:29;;;;;;;17.57;17.07;;;22.70;56.50;;;;;;4992909;28;20457;-70
2023/12/25 07:14:56;;;;;;;17.23;16.73;;;22.70;56.50;;;;;;4991828;28;20614;-70
2023/12/25 07:17:23;;;;;;;16.93;16.53;;;22.70;56.50;;;;;;4992388;28;20465;-69
2023/12/25 07:19:52;;;;;;;16.10;15.70;;;22.70;56.60;;;;;;4992368;28;20470;-70
2023/12/25 07:22:19;;;;;;;17.03;16.63;;;22.70;56.80;;;;;;4989112;28;20946;-69
2023/12/25 07:24:46;;;;;;;16.63;16.23;;;22.70;56.80;;;;;;4989850;28;20864;-70
2023/12/25 07:27:12;;;;;;;16.87;16.47;;;22.70;56.80;;;;;;4992398;28;20487;-70
2023/12/25 07:29:39;;;;;;;16.50;16.10;;;22.70;56.70;;;;;;4990649;28;20474;-70
2023/12/25 07:32:07;;;;;;;15.87;15.47;;;22.70;56.80;;;;;;4984471;28;20470;-69
2023/12/25 07:34:34;;;;;;;18.03;17.63;;;22.70;56.80;;;;;;4992489;28;20494;-70
2023/12/25 07:37:03;;;;;;;16.80;16.40;;;22.70;56.80;;;;;;4992208;28;20561;-70
2023/12/25 07:39:30;;;;;;;17.90;17.40;;;22.70;56.80;;;;;;4991104;28;20475;-70
2023/12/25 07:41:57;;;;;;;17.40;17.00;;;22.70;56.80;;;;;;4992073;28;20811;-70
2023/12/25 07:44:24;;;;;;;16.80;16.40;;;22.70;56.80;;;;;;4985834;28;20482;-70
2023/12/25 07:46:51;;;;;;;15.57;15.17;;;22.70;56.80;;;;;;4991536;28;20581;-69
2023/12/25 07:49:18;;;;;;;16.93;16.53;;;22.80;57.00;;;;;;4992091;28;20482;-70
2023/12/25 07:51:45;;;;;;;16.17;15.77;;;22.80;57.00;;;;;;4991790;28;20449;-69
2023/12/25 07:54:18;;;;;;;15.50;15.10;;;22.90;57.90;;;;;;4989624;28;20468;-66
2023/12/25 07:56:46;;;;;;;15.93;15.53;;;22.90;57.40;;;;;;4991749;28;20526;-70
2023/12/25 07:59:16;;;;;;;15.53;15.13;;;23.00;57.00;;;;;;4990518;28;20509;-71
2023/12/25 08:01:50;;;;;;;15.87;15.47;;;23.00;56.70;;;;;;4991801;28;20498;-68
2023/12/25 08:04:21;;;;;;;15.70;15.30;;;23.00;56.80;;;;;;4993999;28;20442;-69
2023/12/25 08:06:49;;;;;;;16.80;16.40;;;23.10;56.80;;;;;;4992823;28;20490;-68
2023/12/25 08:09:19;;;;;;;18.23;17.73;;;23.20;57.30;;;;;;4993276;28;20447;-69
2023/12/25 08:11:47;;;;;;;17.13;16.53;;;23.20;57.10;;;;;;4992434;28;20939;-71
2023/12/25 08:14:14;;;;;;;17.50;17.00;;;23.20;57.00;;;;;;4991787;28;20451;-71
2023/12/25 08:16:42;;;;;;;18.07;17.50;;;23.20;57.40;;;;;;4986993;28;20503;-68
2023/12/25 08:19:08;;;;;;;17.53;17.13;;;23.30;56.90;;;;;;4983279;28;20455;-69
2023/12/25 08:21:44;;;;;;;18.17;17.70;;;23.30;56.70;;;;;;4996839;28;20497;-70
2023/12/25 08:24:19;;;;;;;18.60;18.00;;;23.30;56.70;;;;;;4987950;28;20860;-68
2023/12/25 08:26:49;;;;;;;17.50;17.10;;;23.40;57.20;;;;;;4995151;28;20489;-69
2023/12/25 08:29:16;;;;;;;17.10;16.70;;;23.40;56.70;;;;;;4995336;28;20470;-72
2023/12/25 08:31:52;;;;;;;16.80;16.40;;;23.50;56.80;;;;;;4995590;28;20501;-71
2023/12/25 08:34:19;;;;;;;20.00;19.50;;;23.40;56.50;;;;;;4995534;28;20532;-72
2023/12/25 08:36:46;;;;;;;17.83;17.43;;;23.50;56.90;;;;;;4995216;28;20498;-71
2023/12/25 08:39:13;;;;;;;19.07;18.57;;;23.50;57.20;;;;;;4995387;28;20527;-71
2023/12/25 08:41:41;;;;;;;18.40;17.90;;;23.50;56.50;;;;;;4997061;28;20442;-70
2023/12/25 08:44:09;;;;;;;17.60;17.20;;;23.50;56.60;;;;;;4992690;28;20474;-68
2023/12/25 08:46:36;;;;;;;18.70;18.00;;;23.50;56.50;;;;;;4997280;28;21041;-72
2023/12/25 08:49:03;;;;;;;18.33;17.87;;;23.60;56.60;;;;;;4998301;28;20535;-70
2023/12/25 08:51:30;;;;;;;17.20;16.70;;;23.60;56.40;;;;;;4997559;28;20439;-71
2023/12/25 08:53:57;;;;;;;17.47;17.07;;;23.60;56.30;;;;;;4997787;28;20438;-69
2023/12/25 08:56:28;;;;;;;17.77;17.37;;;23.60;56.20;;;;;;4996474;28;20929;-69
2023/12/25 08:59:00;;;;;;;18.37;17.87;;;23.70;56.70;;;;;;4994754;28;20546;-70
2023/12/25 09:04:13;;;;;;;17.70;17.30;;;23.70;56.30;;;;;;4987343;28;20451;-72
2023/12/25 09:06:42;;;;;;;17.43;17.03;;;23.70;56.60;;;;;;4994224;28;20482;-72
2023/12/25 09:09:15;;;;;;;17.27;16.77;;;23.70;56.50;;;;;;4986574;28;20443;-72
2023/12/25 09:11:47;;;;;;;18.07;17.57;;;23.80;56.50;;;;;;4994574;28;20483;-70
2023/12/25 09:14:20;;;;;;;18.30;17.83;;;23.80;56.20;;;;;;4985883;28;20531;-71
2023/12/25 09:16:50;;;;;;;17.80;17.33;;;23.80;56.40;;;;;;4993625;28;20525;-71
2023/12/25 09:19:24;;;;;;;18.03;17.57;;;23.80;56.10;;;;;;4994470;28;20475;-71
2023/12/25 09:21:51;;;;;;;18.37;17.87;;;23.80;56.00;;;;;;4978224;28;20455;-70
2023/12/25 09:24:22;;;;;;;18.07;17.57;;;23.80;55.80;;;;;;4993808;28;20439;-72
2023/12/25 09:26:51;;;;;;;17.97;17.47;;;23.90;55.80;;;;;;4993906;28;20514;-71
2023/12/25 09:29:18;;;;;;;17.37;16.97;;;23.90;56.40;;;;;;4993582;28;20501;-71
2023/12/25 09:31:53;;;;;;;17.90;17.50;;;23.90;55.90;;;;;;4994473;28;20457;-71
2023/12/25 09:34:23;;;;;;;17.97;17.50;;;23.90;55.70;;;;;;4993956;28;20439;-71
2023/12/25 09:36:57;;;;;;;16.47;16.07;;;23.90;55.80;;;;;;4994242;28;20554;-69
2023/12/25 09:39:27;;;;;;;18.10;17.60;;;23.90;55.50;;;;;;4994219;28;20478;-72
2023/12/25 09:41:56;;;;;;;18.20;17.70;;;24.00;55.50;;;;;;4993193;28;20444;-70
2023/12/25 09:44:26;;;;;;;16.60;16.20;;;24.00;55.50;;;;;;4979259;28;20497;-71
2023/12/25 09:46:59;;;;;;;16.70;16.30;;;24.00;56.00;;;;;;4994484;28;20514;-71
2023/12/25 09:49:29;;;;;;;17.10;16.70;;;23.90;55.50;;;;;;4981176;28;20498;-71
2023/12/25 09:51:59;;;;;;;17.27;16.77;;;24.00;55.50;;;;;;4992502;28;20458;-70
2023/12/25 09:54:27;;;;;;;17.63;17.13;;;24.00;55.50;;;;;;4996578;28;20451;-68
2023/12/25 09:57:04;;;;;;;17.90;17.40;;;24.00;55.30;;;;;;4989455;28;20796;-69
2023/12/25 09:59:33;;;;;;;17.00;16.60;;;24.00;55.30;;;;;;4976310;28;20462;-71
2023/12/25 10:02:07;;;;;;;18.27;17.77;;;24.10;55.20;;;;;;4993975;28;20470;-72
2023/12/25 10:04:38;;;;;;;16.30;15.90;;;24.10;55.50;;;;;;4993762;28;20470;-67
2023/12/25 10:07:05;;;;;;;18.00;17.40;;;24.10;55.40;;;;;;4993284;28;20493;-68
2023/12/25 10:09:33;;;;;;;17.17;16.77;;;24.10;55.60;;;;;;4992965;28;20478;-68
2023/12/25 10:12:03;;;;;;;16.73;16.13;;;24.10;55.70;;;;;;4993039;28;20449;-72
2023/12/25 10:14:35;;;;;;;17.40;17.00;;;24.10;56.10;;;;;;4994904;28;21203;-69
2023/12/25 10:17:04;;;;;;;17.20;16.80;;;24.10;55.80;;;;;;4994153;28;20467;-72
2023/12/25 10:19:31;;;;;;;17.37;16.97;;;24.10;55.60;;;;;;4987499;28;20802;-72
2023/12/25 10:21:58;;;;;;;17.30;16.80;;;24.20;55.50;;;;;;4993689;28;20443;-73
2023/12/25 10:24:27;;;;;;;18.10;17.70;;;24.10;55.50;;;;;;4993173;28;20545;-74
2023/12/25 10:26:57;;;;;;;17.00;16.60;;;24.10;55.50;;;;;;4993707;28;20482;-69
2023/12/25 10:29:35;;;;;;;17.90;17.40;;;24.10;55.40;;;;;;4993711;28;20498;-66
2023/12/25 10:32:18;;;;;;;17.27;16.87;;;24.20;55.30;;;;;;4993025;28;20470;-72
2023/12/25 10:34:45;;;;;;;16.80;16.40;;;24.20;55.00;;;;;;4993060;28;20454;-68
2023/12/25 10:37:12;;;;;;;17.30;16.90;;;24.20;55.70;;;;;;4993209;28;20459;-73
2023/12/25 10:39:39;;;;;;;18.13;17.53;;;24.30;55.40;;;;;;4985697;28;20451;-71
2023/12/25 10:42:09;;;;;;;16.97;16.57;;;24.30;55.30;;;;;;4992978;28;21380;-70
2023/12/25 10:44:39;;;;;;;16.43;16.03;;;24.30;55.20;;;;;;4992005;28;20848;-69
2023/12/25 10:47:15;;;;;;;17.47;16.87;;;24.30;55.60;;;;;;4994673;28;20490;-71
2023/12/25 10:49:45;;;;;;;17.30;16.80;;;24.30;55.20;;;;;;4995743;28;20482;-72
2023/12/25 10:52:12;;;;;;;19.80;19.30;;;24.30;54.90;;;;;;4991674;28;20505;-67
2023/12/25 10:54:45;;;;;;;19.90;19.33;;;24.30;55.10;;;;;;4989197;28;20471;-68
2023/12/25 10:57:17;;;;;;;18.37;17.87;;;24.30;55.00;;;;;;4992600;28;20556;-71
2023/12/25 10:59:45;;;;;;;17.53;17.03;;;24.30;55.00;;;;;;4992889;28;20525;-68
2023/12/25 11:02:17;;;;;;;17.30;16.90;;;24.30;54.90;;;;;;4992410;28;20455;-70
2023/12/25 11:04:46;;;;;;;23.00;22.30;;;24.30;55.10;;;;;;4993277;28;20458;-70
2023/12/25 11:07:17;;;;;;;23.07;22.47;;;24.30;55.30;;;;;;4991771;28;21020;-71
2023/12/25 11:09:45;;;;;;;22.03;21.43;;;24.30;55.10;;;;;;4992818;28;20526;-70
2023/12/25 11:12:16;;;;;;;24.93;24.23;;;24.30;55.20;;;;;;4974908;28;20486;-71
2023/12/25 11:14:44;;;;;;;22.20;21.60;;;24.30;55.10;;;;;;4990834;28;20461;-70
2023/12/25 11:17:15;;;;;;;24.30;23.60;;;24.30;55.20;;;;;;4986500;28;20455;-72
2023/12/25 11:19:43;;;;;;;21.97;21.37;;;24.30;55.10;;;;;;4992518;28;20447;-69
2023/12/25 11:22:36;;;;;;;24.73;24.03;;;24.40;55.20;;;;;;4992274;28;20537;-70
2023/12/25 11:25:04;;;;;;;23.50;22.80;;;24.40;55.10;;;;;;4978471;28;20486;-70
2023/12/25 11:27:32;;;;;;;22.87;22.27;;;24.40;54.90;;;;;;4991968;28;20965;-69
2023/12/25 11:30:10;;;;;;;21.53;20.93;;;24.40;54.80;;;;;;4990728;28;20439;-68
2023/12/25 11:32:52;;;;;;;21.40;20.80;;;24.40;54.90;;;;;;4991538;28;20926;-70
2023/12/25 11:35:32;;;;;;;21.90;21.20;;;24.40;54.90;;;;;;4984104;28;20866;-70
2023/12/25 11:38:31;;;;;;;22.00;21.40;;;24.50;54.90;;;;;;4991857;28;20478;-73
2023/12/25 11:41:12;;;;;;;24.43;23.73;;;24.50;54.80;;;;;;4974889;28;20449;-72
2023/12/25 11:43:41;;;;;;;22.97;22.27;;;24.40;54.70;;;;;;4988874;28;20452;-73
2023/12/25 11:46:14;;;;;;;20.90;20.30;;;24.50;55.00;;;;;;4991760;28;20501;-71
2023/12/25 11:48:46;;;;;;;20.30;19.80;;;24.40;55.00;;;;;;4991867;28;20816;-76
2023/12/25 11:51:25;;;;;;;24.07;23.37;;;24.40;55.80;;;;;;4992177;28;20466;-74
2023/12/25 11:53:54;;;;;;;21.90;21.20;;;24.40;55.70;;;;;;4995412;28;20447;-71
2023/12/25 11:56:25;;;;;;;21.40;20.80;;;24.40;55.20;;;;;;4995859;28;20466;-69
2023/12/25 11:58:56;;;;;;;24.07;23.40;;;24.50;54.90;;;;;;4994276;28;20466;-69
2023/12/25 12:01:25;;;;;;;21.33;20.73;;;24.50;54.90;;;;;;4996659;28;20471;-70
2023/12/25 12:03:56;;;;;;;23.33;22.73;;;24.50;54.80;;;;;;4995735;28;20974;-70
2023/12/25 12:06:23;;;;;;;22.87;22.27;;;24.50;54.80;;;;;;4995353;28;20467;-70
2023/12/25 12:08:51;;;;;;;22.47;21.77;;;24.50;54.90;;;;;;4993395;28;20439;-68
2023/12/25 12:11:20;;;;;;;22.93;22.33;;;24.50;54.70;;;;;;4986248;28;21005;-69
2023/12/25 12:13:56;;;;;;;21.70;21.10;;;24.50;54.70;;;;;;4990820;28;20448;-69
2023/12/25 12:16:27;;;;;;;21.60;21.00;;;24.50;54.70;;;;;;4987713;28;20484;-69
2023/12/25 12:19:03;;;;;;;22.10;21.50;;;24.50;54.70;;;;;;4995495;28;20501;-70
2023/12/25 12:21:30;;;;;;;23.03;22.43;;;24.50;54.70;;;;;;4995490;28;20973;-71
2023/12/25 12:24:09;;;;;;;23.50;22.90;;;24.50;54.80;;;;;;4995404;28;20866;-67
2023/12/25 12:26:36;;;;;;;23.57;22.97;;;24.50;54.90;;;;;;4977941;28;20469;-69
2023/12/25 12:29:05;;;;;;;22.70;22.10;;;24.50;54.90;;;;;;4993676;28;20447;-67
2023/12/25 12:31:32;;;;;;;21.07;20.50;;;24.50;55.10;;;;;;4978578;28;20501;-69
2023/12/25 12:34:10;;;;;;;22.40;21.80;;;24.60;55.20;;;;;;4993425;28;20470;-67
2023/12/25 12:36:41;;;;;;;22.40;21.80;;;24.50;55.10;;;;;;4995877;28;20538;-67